sensor_id;sensor_type;location;lat;lon;timestamp;temperature;humidity
24207;DHT22;12351;52.284;9.160;2023-11-19T00:00:06;7.40;99.90
24207;DHT22;12351;52.284;9.160;2023-11-19T00:02:55;7.40;99.90
24207;DHT22;12351;52.284;9.160;2023-11-19T00:05:43;7.40;99.90
24207;DHT22;12351;52.284;9.160;2023-11-19T00:08:30;7.40;99.90
24207;DHT22;12351;52.284;9.160;2023-11-19T00:11:18;7.40;99.90
24207;DHT22;12351;52.284;9.160;2023-11-19T00:14:07;7.40;99.90
24207;DHT22;12351;52.284;9.160;2023-11-19T00:16:54;7.40;99.90
24207;DHT22;12351;52.284;9.160;2023-11-19T00:19:41;7.40;99.90
24207;DHT22;12351;52.284;9.160;2023-11-19T00:22:28;7.50;99.90
24207;DHT22;12351;52.284;9.160;2023-11-19T00:25:17;7.50;99.90
24207;DHT22;12351;52.284;9.160;2023-11-19T00:28:06;7.50;99.90
24207;DHT22;12351;52.284;9.160;2023-11-19T00:30:54;7.60;99.90
24207;DHT22;12351;52.284;9.160;2023-11-19T00:33:41;7.60;99.90
24207;DHT22;12351;52.284;9.160;2023-11-19T00:36:29;7.60;99.90
24207;DHT22;12351;52.284;9.160;2023-11-19T00:39:17;7.70;99.90
24207;DHT22;12351;52.284;9.160;2023-11-19T00:42:05;7.70;99.90
24207;DHT22;12351;52.284;9.160;2023-11-19T00:44:54;7.80;99.90
24207;DHT22;12351;52.284;9.160;2023-11-19T00:47:41;7.90;99.90
24207;DHT22;12351;52.284;9.160;2023-11-19T00:50:28;7.90;99.90
24207;DHT22;12351;52.284;9.160;2023-11-19T00:53:17;7.90;99.90
24207;DHT22;12351;52.284;9.160;2023-11-19T00:56:04;8.00;99.90
24207;DHT22;12351;52.284;9.160;2023-11-19T00:58:52;8.00;99.90
24207;DHT22;12351;52.284;9.160;2023-11-19T01:01:39;8.10;99.90
24207;DHT22;12351;52.284;9.160;2023-11-19T01:04:27;8.10;99.90
24207;DHT22;12351;52.284;9.160;2023-11-19T01:07:15;8.10;99.90
24207;DHT22;12351;52.284;9.160;2023-11-19T01:10:01;8.20;99.90
24207;DHT22;12351;52.284;9.160;2023-11-19T01:12:49;8.20;99.90
24207;DHT22;12351;52.284;9.160;2023-11-19T01:15:36;8.20;99.90
24207;DHT22;12351;52.284;9.160;2023-11-19T01:18:23;8.20;99.90
24207;DHT22;12351;52.284;9.160;2023-11-19T01:21:11;8.20;99.90
24207;DHT22;12351;52.284;9.160;2023-11-19T01:24:01;8.30;99.90
24207;DHT22;12351;52.284;9.160;2023-11-19T01:26:50;8.30;99.90
24207;DHT22;12351;52.284;9.160;2023-11-19T01:29:37;8.40;99.90
24207;DHT22;12351;52.284;9.160;2023-11-19T01:32:26;8.40;99.90
24207;DHT22;12351;52.284;9.160;2023-11-19T01:35:13;8.40;99.90
24207;DHT22;12351;52.284;9.160;2023-11-19T01:38:01;8.50;99.90
24207;DHT22;12351;52.284;9.160;2023-11-19T01:40:49;8.50;99.90
24207;DHT22;12351;52.284;9.160;2023-11-19T01:43:38;8.50;99.90
24207;DHT22;12351;52.284;9.160;2023-11-19T01:46:27;8.60;99.90
24207;DHT22;12351;52.284;9.160;2023-11-19T01:49:16;8.60;99.90
24207;DHT22;12351;52.284;9.160;2023-11-19T01:52:05;8.60;99.90
24207;DHT22;12351;52.284;9.160;2023-11-19T01:54:55;8.60;99.90
24207;DHT22;12351;52.284;9.160;2023-11-19T01:57:43;8.60;99.90
24207;DHT22;12351;52.284;9.160;2023-11-19T02:00:32;8.60;99.90
24207;DHT22;12351;52.284;9.160;2023-11-19T02:03:21;8.60;99.90
24207;DHT22;12351;52.284;9.160;2023-11-19T02:06:11;8.70;99.90
24207;DHT22;12351;52.284;9.160;2023-11-19T02:08:59;8.70;99.90
24207;DHT22;12351;52.284;9.160;2023-11-19T02:11:46;8.70;99.90
24207;DHT22;12351;52.284;9.160;2023-11-19T02:14:35;8.80;99.90
24207;DHT22;12351;52.284;9.160;2023-11-19T02:17:25;8.80;99.90
24207;DHT22;12351;52.284;9.160;2023-11-19T02:20:14;8.80;99.90
24207;DHT22;12351;52.284;9.160;2023-11-19T02:23:02;8.90;99.90
24207;DHT22;12351;52.284;9.160;2023-11-19T02:28:39;9.00;99.90
24207;DHT22;12351;52.284;9.160;2023-11-19T02:31:28;8.90;99.90
24207;DHT22;12351;52.284;9.160;2023-11-19T02:34:16;9.00;99.90
24207;DHT22;12351;52.284;9.160;2023-11-19T02:37:05;9.00;99.90
24207;DHT22;12351;52.284;9.160;2023-11-19T02:39:52;9.10;99.90
24207;DHT22;12351;52.284;9.160;2023-11-19T02:42:40;9.10;99.90
24207;DHT22;12351;52.284;9.160;2023-11-19T02:45:28;9.10;99.90
24207;DHT22;12351;52.284;9.160;2023-11-19T02:48:17;9.20;99.90
24207;DHT22;12351;52.284;9.160;2023-11-19T02:51:06;9.20;99.90
24207;DHT22;12351;52.284;9.160;2023-11-19T02:53:55;9.20;99.90
24207;DHT22;12351;52.284;9.160;2023-11-19T02:56:43;9.20;99.90
24207;DHT22;12351;52.284;9.160;2023-11-19T02:59:32;9.30;99.90
24207;DHT22;12351;52.284;9.160;2023-11-19T03:02:21;9.30;99.90
24207;DHT22;12351;52.284;9.160;2023-11-19T03:05:09;9.30;99.90
24207;DHT22;12351;52.284;9.160;2023-11-19T03:13:41;9.50;99.90
24207;DHT22;12351;52.284;9.160;2023-11-19T03:22:13;9.60;99.90
24207;DHT22;12351;52.284;9.160;2023-11-19T03:25:00;9.60;99.90
24207;DHT22;12351;52.284;9.160;2023-11-19T03:27:47;9.50;99.90
24207;DHT22;12351;52.284;9.160;2023-11-19T03:30:35;9.70;99.90
24207;DHT22;12351;52.284;9.160;2023-11-19T03:33:23;9.60;99.90
24207;DHT22;12351;52.284;9.160;2023-11-19T03:36:11;9.70;99.90
24207;DHT22;12351;52.284;9.160;2023-11-19T03:38:59;9.70;99.90
24207;DHT22;12351;52.284;9.160;2023-11-19T03:41:47;9.70;99.90
24207;DHT22;12351;52.284;9.160;2023-11-19T03:44:34;9.70;99.90
24207;DHT22;12351;52.284;9.160;2023-11-19T03:47:23;9.80;99.90
24207;DHT22;12351;52.284;9.160;2023-11-19T03:50:10;9.90;99.90
24207;DHT22;12351;52.284;9.160;2023-11-19T03:52:59;9.90;99.90
24207;DHT22;12351;52.284;9.160;2023-11-19T03:55:47;9.90;99.90
24207;DHT22;12351;52.284;9.160;2023-11-19T03:58:34;9.90;99.90
24207;DHT22;12351;52.284;9.160;2023-11-19T04:01:22;10.00;99.90
24207;DHT22;12351;52.284;9.160;2023-11-19T04:04:09;10.10;99.90
24207;DHT22;12351;52.284;9.160;2023-11-19T04:06:57;10.00;99.90
24207;DHT22;12351;52.284;9.160;2023-11-19T04:09:45;10.00;99.90
24207;DHT22;12351;52.284;9.160;2023-11-19T04:12:32;10.10;99.90
24207;DHT22;12351;52.284;9.160;2023-11-19T04:15:21;10.20;99.90
24207;DHT22;12351;52.284;9.160;2023-11-19T04:18:08;10.10;99.90
24207;DHT22;12351;52.284;9.160;2023-11-19T04:20:57;10.10;99.90
24207;DHT22;12351;52.284;9.160;2023-11-19T04:23:45;10.20;99.90
24207;DHT22;12351;52.284;9.160;2023-11-19T04:26:32;10.20;99.90
24207;DHT22;12351;52.284;9.160;2023-11-19T04:29:20;10.20;99.90
24207;DHT22;12351;52.284;9.160;2023-11-19T04:32:09;10.20;99.90
24207;DHT22;12351;52.284;9.160;2023-11-19T04:34:57;10.30;99.90
24207;DHT22;12351;52.284;9.160;2023-11-19T04:37:44;10.20;99.90
24207;DHT22;12351;52.284;9.160;2023-11-19T04:40:31;10.30;99.90
24207;DHT22;12351;52.284;9.160;2023-11-19T04:43:20;10.30;99.90
24207;DHT22;12351;52.284;9.160;2023-11-19T04:46:09;10.30;99.90
24207;DHT22;12351;52.284;9.160;2023-11-19T04:48:58;10.40;99.90
24207;DHT22;12351;52.284;9.160;2023-11-19T04:51:46;10.30;99.90
24207;DHT22;12351;52.284;9.160;2023-11-19T04:54:34;10.30;99.90
24207;DHT22;12351;52.284;9.160;2023-11-19T04:57:21;10.40;99.90
24207;DHT22;12351;52.284;9.160;2023-11-19T05:00:10;10.40;99.90
24207;DHT22;12351;52.284;9.160;2023-11-19T05:02:59;10.40;99.90
24207;DHT22;12351;52.284;9.160;2023-11-19T05:05:46;10.40;99.90
24207;DHT22;12351;52.284;9.160;2023-11-19T05:08:35;10.40;99.90
24207;DHT22;12351;52.284;9.160;2023-11-19T05:11:23;10.40;99.90
24207;DHT22;12351;52.284;9.160;2023-11-19T05:14:12;10.50;99.90
24207;DHT22;12351;52.284;9.160;2023-11-19T05:17:00;10.50;99.90
24207;DHT22;12351;52.284;9.160;2023-11-19T05:19:47;10.50;99.90
24207;DHT22;12351;52.284;9.160;2023-11-19T05:22:34;10.50;99.90
24207;DHT22;12351;52.284;9.160;2023-11-19T05:25:23;10.50;99.90
24207;DHT22;12351;52.284;9.160;2023-11-19T05:28:12;10.50;99.90
24207;DHT22;12351;52.284;9.160;2023-11-19T05:31:00;10.50;99.90
24207;DHT22;12351;52.284;9.160;2023-11-19T05:33:47;10.50;99.90
24207;DHT22;12351;52.284;9.160;2023-11-19T05:36:34;10.50;99.90
24207;DHT22;12351;52.284;9.160;2023-11-19T05:39:23;10.50;99.90
24207;DHT22;12351;52.284;9.160;2023-11-19T05:42:11;10.50;99.90
24207;DHT22;12351;52.284;9.160;2023-11-19T05:44:59;10.50;99.90
24207;DHT22;12351;52.284;9.160;2023-11-19T05:47:46;10.60;99.90
24207;DHT22;12351;52.284;9.160;2023-11-19T05:50:33;10.50;99.90
24207;DHT22;12351;52.284;9.160;2023-11-19T05:53:21;10.60;99.90
24207;DHT22;12351;52.284;9.160;2023-11-19T05:56:09;10.60;99.90
24207;DHT22;12351;52.284;9.160;2023-11-19T05:58:57;10.50;99.90
24207;DHT22;12351;52.284;9.160;2023-11-19T06:01:46;10.60;99.90
24207;DHT22;12351;52.284;9.160;2023-11-19T06:04:34;10.60;99.90
24207;DHT22;12351;52.284;9.160;2023-11-19T06:07:21;10.60;99.90
24207;DHT22;12351;52.284;9.160;2023-11-19T06:10:09;10.60;99.90
24207;DHT22;12351;52.284;9.160;2023-11-19T06:13:02;10.60;99.90
24207;DHT22;12351;52.284;9.160;2023-11-19T06:15:50;10.60;99.90
24207;DHT22;12351;52.284;9.160;2023-11-19T06:18:39;10.60;99.90
24207;DHT22;12351;52.284;9.160;2023-11-19T06:21:28;10.60;99.90
24207;DHT22;12351;52.284;9.160;2023-11-19T06:24:15;10.60;99.90
24207;DHT22;12351;52.284;9.160;2023-11-19T06:27:03;10.60;99.90
24207;DHT22;12351;52.284;9.160;2023-11-19T06:29:50;10.60;99.90
24207;DHT22;12351;52.284;9.160;2023-11-19T06:32:38;10.60;99.90
24207;DHT22;12351;52.284;9.160;2023-11-19T06:35:26;10.50;99.90
24207;DHT22;12351;52.284;9.160;2023-11-19T06:38:14;10.50;99.90
24207;DHT22;12351;52.284;9.160;2023-11-19T06:41:01;10.50;99.90
24207;DHT22;12351;52.284;9.160;2023-11-19T06:43:51;10.50;99.90
24207;DHT22;12351;52.284;9.160;2023-11-19T06:46:39;10.40;99.90
24207;DHT22;12351;52.284;9.160;2023-11-19T06:49:27;10.50;99.90
24207;DHT22;12351;52.284;9.160;2023-11-19T06:52:15;10.40;99.90
24207;DHT22;12351;52.284;9.160;2023-11-19T06:55:04;10.40;99.90
24207;DHT22;12351;52.284;9.160;2023-11-19T06:57:51;10.40;99.90
24207;DHT22;12351;52.284;9.160;2023-11-19T07:00:38;10.40;99.90
24207;DHT22;12351;52.284;9.160;2023-11-19T07:03:25;10.40;99.90
24207;DHT22;12351;52.284;9.160;2023-11-19T07:06:14;10.40;99.90
24207;DHT22;12351;52.284;9.160;2023-11-19T07:09:03;10.40;99.90
24207;DHT22;12351;52.284;9.160;2023-11-19T07:11:53;10.40;99.90
24207;DHT22;12351;52.284;9.160;2023-11-19T07:14:40;10.40;99.90
24207;DHT22;12351;52.284;9.160;2023-11-19T07:17:30;10.40;99.90
24207;DHT22;12351;52.284;9.160;2023-11-19T07:20:19;10.40;99.90
24207;DHT22;12351;52.284;9.160;2023-11-19T07:23:06;10.40;99.90
24207;DHT22;12351;52.284;9.160;2023-11-19T07:25:55;10.40;99.90
24207;DHT22;12351;52.284;9.160;2023-11-19T07:28:43;10.30;99.90
24207;DHT22;12351;52.284;9.160;2023-11-19T07:31:31;10.40;99.90
24207;DHT22;12351;52.284;9.160;2023-11-19T07:34:19;10.30;99.90
24207;DHT22;12351;52.284;9.160;2023-11-19T07:37:08;10.40;99.90
24207;DHT22;12351;52.284;9.160;2023-11-19T07:39:55;10.40;99.90
24207;DHT22;12351;52.284;9.160;2023-11-19T07:42:43;10.40;99.90
24207;DHT22;12351;52.284;9.160;2023-11-19T07:45:30;10.40;99.90
24207;DHT22;12351;52.284;9.160;2023-11-19T07:48:18;10.40;99.90
24207;DHT22;12351;52.284;9.160;2023-11-19T07:51:08;10.40;99.90
24207;DHT22;12351;52.284;9.160;2023-11-19T07:53:55;10.40;99.90
24207;DHT22;12351;52.284;9.160;2023-11-19T07:56:43;10.40;99.90
24207;DHT22;12351;52.284;9.160;2023-11-19T07:59:30;10.40;99.90
24207;DHT22;12351;52.284;9.160;2023-11-19T08:02:18;10.40;99.90
24207;DHT22;12351;52.284;9.160;2023-11-19T08:05:06;10.40;99.90
24207;DHT22;12351;52.284;9.160;2023-11-19T08:07:53;10.40;99.90
24207;DHT22;12351;52.284;9.160;2023-11-19T08:10:41;10.40;99.90
24207;DHT22;12351;52.284;9.160;2023-11-19T08:13:29;10.40;99.90
24207;DHT22;12351;52.284;9.160;2023-11-19T08:19:07;10.40;99.90
24207;DHT22;12351;52.284;9.160;2023-11-19T08:21:56;10.50;99.90
24207;DHT22;12351;52.284;9.160;2023-11-19T08:24:44;10.40;99.90
24207;DHT22;12351;52.284;9.160;2023-11-19T08:27:31;10.40;99.90
24207;DHT22;12351;52.284;9.160;2023-11-19T08:30:19;10.40;99.90
24207;DHT22;12351;52.284;9.160;2023-11-19T08:33:07;10.40;99.90
24207;DHT22;12351;52.284;9.160;2023-11-19T08:35:55;10.40;99.90
24207;DHT22;12351;52.284;9.160;2023-11-19T08:38:43;10.40;99.90
24207;DHT22;12351;52.284;9.160;2023-11-19T08:41:30;10.40;99.90
24207;DHT22;12351;52.284;9.160;2023-11-19T08:44:19;10.40;99.90
24207;DHT22;12351;52.284;9.160;2023-11-19T08:47:06;10.40;99.90
24207;DHT22;12351;52.284;9.160;2023-11-19T08:49:53;10.50;99.90
24207;DHT22;12351;52.284;9.160;2023-11-19T08:52:41;10.40;99.90
24207;DHT22;12351;52.284;9.160;2023-11-19T08:55:29;10.50;99.90
24207;DHT22;12351;52.284;9.160;2023-11-19T08:58:18;10.50;99.90
24207;DHT22;12351;52.284;9.160;2023-11-19T09:01:06;10.50;99.90
24207;DHT22;12351;52.284;9.160;2023-11-19T09:03:53;10.50;99.90
24207;DHT22;12351;52.284;9.160;2023-11-19T09:06:41;10.50;99.90
24207;DHT22;12351;52.284;9.160;2023-11-19T09:09:29;10.50;99.90
24207;DHT22;12351;52.284;9.160;2023-11-19T09:12:16;10.60;99.90
24207;DHT22;12351;52.284;9.160;2023-11-19T09:15:04;10.60;99.90
24207;DHT22;12351;52.284;9.160;2023-11-19T09:17:53;10.60;99.90
24207;DHT22;12351;52.284;9.160;2023-11-19T09:20:40;10.60;99.90
24207;DHT22;12351;52.284;9.160;2023-11-19T09:23:27;10.70;99.90
24207;DHT22;12351;52.284;9.160;2023-11-19T09:26:17;10.60;99.90
24207;DHT22;12351;52.284;9.160;2023-11-19T09:29:04;10.70;99.90
24207;DHT22;12351;52.284;9.160;2023-11-19T09:31:53;10.70;99.90
24207;DHT22;12351;52.284;9.160;2023-11-19T09:34:39;10.70;99.90
24207;DHT22;12351;52.284;9.160;2023-11-19T09:37:27;10.70;99.90
24207;DHT22;12351;52.284;9.160;2023-11-19T09:40:14;10.80;99.90
24207;DHT22;12351;52.284;9.160;2023-11-19T09:43:03;10.80;99.90
24207;DHT22;12351;52.284;9.160;2023-11-19T09:45:50;10.80;99.90
24207;DHT22;12351;52.284;9.160;2023-11-19T09:48:38;10.80;99.90
24207;DHT22;12351;52.284;9.160;2023-11-19T09:51:26;10.90;99.90
24207;DHT22;12351;52.284;9.160;2023-11-19T09:54:14;10.90;99.90
24207;DHT22;12351;52.284;9.160;2023-11-19T09:57:04;10.90;99.90
24207;DHT22;12351;52.284;9.160;2023-11-19T09:59:52;10.80;99.90
24207;DHT22;12351;52.284;9.160;2023-11-19T10:02:40;10.90;99.90
24207;DHT22;12351;52.284;9.160;2023-11-19T10:05:30;10.80;99.90
24207;DHT22;12351;52.284;9.160;2023-11-19T10:08:18;10.90;99.90
24207;DHT22;12351;52.284;9.160;2023-11-19T10:11:07;10.90;99.90
24207;DHT22;12351;52.284;9.160;2023-11-19T10:13:57;10.90;99.90
24207;DHT22;12351;52.284;9.160;2023-11-19T10:16:47;10.90;99.90
24207;DHT22;12351;52.284;9.160;2023-11-19T10:19:34;10.80;99.90
24207;DHT22;12351;52.284;9.160;2023-11-19T10:22:29;10.80;99.90
24207;DHT22;12351;52.284;9.160;2023-11-19T10:28:07;10.80;99.90
24207;DHT22;12351;52.284;9.160;2023-11-19T10:30:56;10.80;99.90
24207;DHT22;12351;52.284;9.160;2023-11-19T10:33:44;10.80;99.90
24207;DHT22;12351;52.284;9.160;2023-11-19T10:39:33;10.80;99.90
24207;DHT22;12351;52.284;9.160;2023-11-19T10:42:16;10.70;99.90
24207;DHT22;12351;52.284;9.160;2023-11-19T10:45:17;10.60;99.90
24207;DHT22;12351;52.284;9.160;2023-11-19T10:47:54;10.70;99.90
24207;DHT22;12351;52.284;9.160;2023-11-19T10:50:45;10.70;99.90
24207;DHT22;12351;52.284;9.160;2023-11-19T10:53:36;10.70;99.90
24207;DHT22;12351;52.284;9.160;2023-11-19T10:56:25;10.70;99.90
24207;DHT22;12351;52.284;9.160;2023-11-19T10:59:17;10.70;99.90
24207;DHT22;12351;52.284;9.160;2023-11-19T11:02:08;10.80;99.90
24207;DHT22;12351;52.284;9.160;2023-11-19T11:04:58;10.80;99.90
24207;DHT22;12351;52.284;9.160;2023-11-19T11:07:47;10.80;99.90
24207;DHT22;12351;52.284;9.160;2023-11-19T11:10:42;10.80;99.90
24207;DHT22;12351;52.284;9.160;2023-11-19T11:13:27;10.80;99.90
24207;DHT22;12351;52.284;9.160;2023-11-19T11:16:19;10.90;99.90
24207;DHT22;12351;52.284;9.160;2023-11-19T11:19:08;10.90;99.90
24207;DHT22;12351;52.284;9.160;2023-11-19T11:21:56;10.90;99.90
24207;DHT22;12351;52.284;9.160;2023-11-19T11:30:31;10.90;46.50
24207;DHT22;12351;52.284;9.160;2023-11-19T11:38:58;11.10;1.00
24207;DHT22;12351;52.284;9.160;2023-11-19T11:41:47;11.10;1.00
24207;DHT22;12351;52.284;9.160;2023-11-19T11:47:26;11.20;1.00
24207;DHT22;12351;52.284;9.160;2023-11-19T11:50:16;11.20;1.00
24207;DHT22;12351;52.284;9.160;2023-11-19T11:55:56;11.20;1.00
24207;DHT22;12351;52.284;9.160;2023-11-19T11:58:46;11.20;1.00
24207;DHT22;12351;52.284;9.160;2023-11-19T12:01:35;11.20;1.00
24207;DHT22;12351;52.284;9.160;2023-11-19T12:04:21;11.20;1.00
24207;DHT22;12351;52.284;9.160;2023-11-19T12:07:13;11.30;71.10
24207;DHT22;12351;52.284;9.160;2023-11-19T12:12:56;11.20;99.90
24207;DHT22;12351;52.284;9.160;2023-11-19T12:18:33;11.10;32.90
24207;DHT22;12351;52.284;9.160;2023-11-19T12:24:11;11.10;3.50
24207;DHT22;12351;52.284;9.160;2023-11-19T12:27:00;11.10;26.20
24207;DHT22;12351;52.284;9.160;2023-11-19T12:29:48;11.10;93.80
24207;DHT22;12351;52.284;9.160;2023-11-19T12:32:38;11.00;99.90
24207;DHT22;12351;52.284;9.160;2023-11-19T12:35:25;11.00;99.90
24207;DHT22;12351;52.284;9.160;2023-11-19T12:41:10;11.00;99.90
24207;DHT22;12351;52.284;9.160;2023-11-19T12:49:40;11.00;99.90
24207;DHT22;12351;52.284;9.160;2023-11-19T12:52:27;10.90;99.90
24207;DHT22;12351;52.284;9.160;2023-11-19T12:58:05;11.00;99.90
24207;DHT22;12351;52.284;9.160;2023-11-19T13:00:58;11.00;99.90
24207;DHT22;12351;52.284;9.160;2023-11-19T13:03:42;11.00;99.90
24207;DHT22;12351;52.284;9.160;2023-11-19T13:06:30;11.00;99.90
24207;DHT22;12351;52.284;9.160;2023-11-19T13:15:00;10.90;99.90
24207;DHT22;12351;52.284;9.160;2023-11-19T13:17:47;10.90;99.90
24207;DHT22;12351;52.284;9.160;2023-11-19T13:20:34;11.00;99.90
24207;DHT22;12351;52.284;9.160;2023-11-19T13:23:21;10.90;99.90
24207;DHT22;12351;52.284;9.160;2023-11-19T13:26:10;10.90;99.90
24207;DHT22;12351;52.284;9.160;2023-11-19T13:28:58;11.00;99.90
24207;DHT22;12351;52.284;9.160;2023-11-19T13:31:45;11.00;99.90
24207;DHT22;12351;52.284;9.160;2023-11-19T13:34:33;11.00;99.90
24207;DHT22;12351;52.284;9.160;2023-11-19T13:37:21;11.00;99.90
24207;DHT22;12351;52.284;9.160;2023-11-19T13:40:09;11.10;99.90
24207;DHT22;12351;52.284;9.160;2023-11-19T13:42:58;11.10;99.90
24207;DHT22;12351;52.284;9.160;2023-11-19T13:45:47;11.10;99.90
24207;DHT22;12351;52.284;9.160;2023-11-19T13:48:37;11.10;99.90
24207;DHT22;12351;52.284;9.160;2023-11-19T13:51:23;11.10;99.90
24207;DHT22;12351;52.284;9.160;2023-11-19T13:54:10;11.10;99.90
24207;DHT22;12351;52.284;9.160;2023-11-19T13:56:59;11.10;99.90
24207;DHT22;12351;52.284;9.160;2023-11-19T13:59:46;11.20;99.90
24207;DHT22;12351;52.284;9.160;2023-11-19T14:02:39;11.10;99.90
24207;DHT22;12351;52.284;9.160;2023-11-19T14:05:26;11.10;98.10
24207;DHT22;12351;52.284;9.160;2023-11-19T14:08:14;11.10;57.00
24207;DHT22;12351;52.284;9.160;2023-11-19T14:11:01;11.00;25.20
24207;DHT22;12351;52.284;9.160;2023-11-19T14:13:49;11.10;19.20
24207;DHT22;12351;52.284;9.160;2023-11-19T14:16:38;11.10;20.60
24207;DHT22;12351;52.284;9.160;2023-11-19T14:19:26;11.10;16.50
24207;DHT22;12351;52.284;9.160;2023-11-19T14:22:15;11.10;16.70
24207;DHT22;12351;52.284;9.160;2023-11-19T14:25:03;11.10;1.00
24207;DHT22;12351;52.284;9.160;2023-11-19T14:27:51;11.10;1.00
24207;DHT22;12351;52.284;9.160;2023-11-19T14:30:38;11.20;1.00
24207;DHT22;12351;52.284;9.160;2023-11-19T14:33:26;11.20;1.00
24207;DHT22;12351;52.284;9.160;2023-11-19T14:36:14;11.20;1.00
24207;DHT22;12351;52.284;9.160;2023-11-19T14:39:02;11.20;1.00
24207;DHT22;12351;52.284;9.160;2023-11-19T14:41:49;11.20;1.00
24207;DHT22;12351;52.284;9.160;2023-11-19T14:44:40;11.20;1.00
24207;DHT22;12351;52.284;9.160;2023-11-19T14:47:27;11.20;1.00
24207;DHT22;12351;52.284;9.160;2023-11-19T14:50:15;11.20;1.00
24207;DHT22;12351;52.284;9.160;2023-11-19T14:53:03;11.20;1.00
24207;DHT22;12351;52.284;9.160;2023-11-19T14:55:51;11.20;1.00
24207;DHT22;12351;52.284;9.160;2023-11-19T14:58:39;11.20;1.00
24207;DHT22;12351;52.284;9.160;2023-11-19T15:01:28;11.20;1.00
24207;DHT22;12351;52.284;9.160;2023-11-19T15:04:17;11.20;1.00
24207;DHT22;12351;52.284;9.160;2023-11-19T15:07:05;11.20;1.00
24207;DHT22;12351;52.284;9.160;2023-11-19T15:09:52;11.20;1.00
24207;DHT22;12351;52.284;9.160;2023-11-19T15:12:40;11.20;1.00
24207;DHT22;12351;52.284;9.160;2023-11-19T15:15:28;11.20;1.00
24207;DHT22;12351;52.284;9.160;2023-11-19T15:18:16;11.10;1.00
24207;DHT22;12351;52.284;9.160;2023-11-19T15:21:04;11.20;1.00
24207;DHT22;12351;52.284;9.160;2023-11-19T15:23:51;11.10;1.00
24207;DHT22;12351;52.284;9.160;2023-11-19T15:26:39;11.10;1.00
24207;DHT22;12351;52.284;9.160;2023-11-19T15:29:26;11.10;1.00
24207;DHT22;12351;52.284;9.160;2023-11-19T15:32:14;11.10;30.10
24207;DHT22;12351;52.284;9.160;2023-11-19T15:35:01;11.00;56.30
24207;DHT22;12351;52.284;9.160;2023-11-19T15:37:49;11.00;92.10
24207;DHT22;12351;52.284;9.160;2023-11-19T15:40:38;10.90;99.90
24207;DHT22;12351;52.284;9.160;2023-11-19T15:43:26;11.00;99.90
24207;DHT22;12351;52.284;9.160;2023-11-19T15:46:15;11.00;99.90
24207;DHT22;12351;52.284;9.160;2023-11-19T15:49:02;11.00;99.90
24207;DHT22;12351;52.284;9.160;2023-11-19T15:51:50;10.90;99.90
24207;DHT22;12351;52.284;9.160;2023-11-19T15:54:38;10.90;99.90
24207;DHT22;12351;52.284;9.160;2023-11-19T15:57:26;10.90;99.90
24207;DHT22;12351;52.284;9.160;2023-11-19T16:00:14;10.90;99.90
24207;DHT22;12351;52.284;9.160;2023-11-19T16:03:02;10.90;99.90
24207;DHT22;12351;52.284;9.160;2023-11-19T16:05:49;10.90;99.90
24207;DHT22;12351;52.284;9.160;2023-11-19T16:08:38;10.90;98.10
24207;DHT22;12351;52.284;9.160;2023-11-19T16:11:25;10.80;92.00
24207;DHT22;12351;52.284;9.160;2023-11-19T16:14:12;10.90;72.70
24207;DHT22;12351;52.284;9.160;2023-11-19T16:17:01;10.90;69.60
24207;DHT22;12351;52.284;9.160;2023-11-19T16:22:39;10.80;48.90
24207;DHT22;12351;52.284;9.160;2023-11-19T16:28:16;10.80;30.60
24207;DHT22;12351;52.284;9.160;2023-11-19T16:31:07;10.80;13.90
24207;DHT22;12351;52.284;9.160;2023-11-19T16:33:55;10.80;11.40
24207;DHT22;12351;52.284;9.160;2023-11-19T16:36:43;10.80;1.00
24207;DHT22;12351;52.284;9.160;2023-11-19T16:39:30;10.80;1.00
24207;DHT22;12351;52.284;9.160;2023-11-19T16:42:17;10.80;1.00
24207;DHT22;12351;52.284;9.160;2023-11-19T16:45:07;10.80;1.00
24207;DHT22;12351;52.284;9.160;2023-11-19T16:47:56;10.80;8.90
24207;DHT22;12351;52.284;9.160;2023-11-19T16:50:44;10.80;18.20
24207;DHT22;12351;52.284;9.160;2023-11-19T16:53:33;10.80;20.50
24207;DHT22;12351;52.284;9.160;2023-11-19T16:56:22;10.80;14.30
24207;DHT22;12351;52.284;9.160;2023-11-19T16:59:10;10.80;8.10
24207;DHT22;12351;52.284;9.160;2023-11-19T17:01:58;10.80;1.00
24207;DHT22;12351;52.284;9.160;2023-11-19T17:04:45;10.80;1.00
24207;DHT22;12351;52.284;9.160;2023-11-19T17:07:35;10.80;1.00
24207;DHT22;12351;52.284;9.160;2023-11-19T17:10:23;10.80;14.40
24207;DHT22;12351;52.284;9.160;2023-11-19T17:13:10;10.80;30.80
24207;DHT22;12351;52.284;9.160;2023-11-19T17:15:58;10.80;38.60
24207;DHT22;12351;52.284;9.160;2023-11-19T17:21:36;10.80;65.00
24207;DHT22;12351;52.284;9.160;2023-11-19T17:24:23;10.80;84.20
24207;DHT22;12351;52.284;9.160;2023-11-19T17:27:11;10.80;99.90
24207;DHT22;12351;52.284;9.160;2023-11-19T17:29:59;10.80;99.90
24207;DHT22;12351;52.284;9.160;2023-11-19T17:32:50;10.80;99.90
24207;DHT22;12351;52.284;9.160;2023-11-19T17:35:38;10.70;99.90
24207;DHT22;12351;52.284;9.160;2023-11-19T17:38:26;10.70;99.90
24207;DHT22;12351;52.284;9.160;2023-11-19T17:41:14;10.70;99.90
24207;DHT22;12351;52.284;9.160;2023-11-19T17:44:01;10.70;99.90
24207;DHT22;12351;52.284;9.160;2023-11-19T17:46:49;10.70;99.90
24207;DHT22;12351;52.284;9.160;2023-11-19T17:49:38;10.70;99.90
24207;DHT22;12351;52.284;9.160;2023-11-19T17:52:25;10.70;99.90
24207;DHT22;12351;52.284;9.160;2023-11-19T17:55:14;10.70;99.90
24207;DHT22;12351;52.284;9.160;2023-11-19T17:58:02;10.70;99.90
24207;DHT22;12351;52.284;9.160;2023-11-19T18:00:50;10.70;99.90
24207;DHT22;12351;52.284;9.160;2023-11-19T18:03:38;10.70;99.90
24207;DHT22;12351;52.284;9.160;2023-11-19T18:06:25;10.70;99.90
24207;DHT22;12351;52.284;9.160;2023-11-19T18:09:14;10.70;99.90
24207;DHT22;12351;52.284;9.160;2023-11-19T18:12:03;10.70;99.90
24207;DHT22;12351;52.284;9.160;2023-11-19T18:14:50;10.70;99.90
24207;DHT22;12351;52.284;9.160;2023-11-19T18:17:37;10.60;99.90
24207;DHT22;12351;52.284;9.160;2023-11-19T18:20:25;10.60;99.90
24207;DHT22;12351;52.284;9.160;2023-11-19T18:23:13;10.60;99.90
24207;DHT22;12351;52.284;9.160;2023-11-19T18:26:02;10.60;99.90
24207;DHT22;12351;52.284;9.160;2023-11-19T18:28:50;10.60;99.90
24207;DHT22;12351;52.284;9.160;2023-11-19T18:31:39;10.60;99.90
24207;DHT22;12351;52.284;9.160;2023-11-19T18:34:26;10.60;99.90
24207;DHT22;12351;52.284;9.160;2023-11-19T18:37:14;10.60;99.90
24207;DHT22;12351;52.284;9.160;2023-11-19T18:40:02;10.60;99.90
24207;DHT22;12351;52.284;9.160;2023-11-19T18:42:51;10.60;99.90
24207;DHT22;12351;52.284;9.160;2023-11-19T18:45:39;10.60;99.90
24207;DHT22;12351;52.284;9.160;2023-11-19T18:48:29;10.60;99.90
24207;DHT22;12351;52.284;9.160;2023-11-19T18:51:16;10.60;99.90
24207;DHT22;12351;52.284;9.160;2023-11-19T18:54:04;10.60;99.90
24207;DHT22;12351;52.284;9.160;2023-11-19T18:56:52;10.60;99.90
24207;DHT22;12351;52.284;9.160;2023-11-19T18:59:41;10.60;99.90